Time;durP1;ratioP1;P1;durP2;ratioP2;P2;SDS_P1;SDS_P2;PMS_P1;PMS_P2;Temp;Humidity;BMP_temperature;BMP_pressure;BME280_temperature;BME280_humidity;BME280_pressure;Samples;Min_cycle;Max_cycle;Signal;HPM_P1;HPM_P2
2021/04/06 00:02:17;;;;;;;10.78;6.95;;;;;;;3.51;59.14;99263.59;1749569;80;21184;-72
2021/04/06 00:04:48;;;;;;;8.78;5.90;;;;;;;3.49;59.16;99260.41;1771585;80;21215;-71
2021/04/06 00:07:20;;;;;;;8.58;6.25;;;;;;;3.49;59.23;99257.77;1768365;80;21864;-71
2021/04/06 00:09:55;;;;;;;9.98;6.28;;;;;;;3.47;59.30;99257.72;1743970;80;21706;-70
2021/04/06 00:12:23;;;;;;;10.32;6.35;;;;;;;3.46;59.36;99262.73;1768925;79;21259;-70
2021/04/06 00:14:51;;;;;;;10.55;6.72;;;;;;;3.44;59.42;99257.68;1759429;79;21125;-71
2021/04/06 00:17:19;;;;;;;9.73;6.33;;;;;;;3.44;59.54;99267.45;1732968;81;21132;-70
2021/04/06 00:19:47;;;;;;;10.05;6.97;;;;;;;3.42;59.69;99267.70;1730012;81;21638;-71
2021/04/06 00:22:17;;;;;;;10.78;6.70;;;;;;;3.41;59.76;99262.12;1762088;81;21218;-71
2021/04/06 00:24:48;;;;;;;10.82;6.80;;;;;;;3.40;59.80;99264.48;1759187;81;21391;-72
2021/04/06 00:27:21;;;;;;;9.45;6.42;;;;;;;3.39;59.92;99261.58;1757671;80;21196;-70
2021/04/06 00:29:56;;;;;;;11.57;7.20;;;;;;;3.37;60.00;99264.17;1758779;81;26252;-70
2021/04/06 00:32:26;;;;;;;8.98;6.17;;;;;;;3.34;60.11;99258.85;1760806;81;21214;-71
2021/04/06 00:35:01;;;;;;;10.63;6.95;;;;;;;3.32;60.16;99256.96;1762761;80;21655;-72
2021/04/06 00:37:29;;;;;;;9.38;6.45;;;;;;;3.29;60.23;99252.98;1762705;81;21393;-72
2021/04/06 00:40:06;;;;;;;10.30;6.95;;;;;;;3.27;60.36;99256.38;1760295;80;21195;-72
2021/04/06 00:42:34;;;;;;;9.13;6.62;;;;;;;3.25;60.42;99258.97;1761019;79;21466;-72
2021/04/06 00:45:13;;;;;;;10.00;6.75;;;;;;;3.23;60.51;99256.59;1753914;81;21089;-72
2021/04/06 00:47:42;;;;;;;11.90;7.65;;;;;;;3.18;60.63;99249.10;1752805;80;21183;-71
2021/04/06 00:50:14;;;;;;;9.75;7.05;;;;;;;3.13;60.75;99244.55;1752781;81;21173;-71
2021/04/06 00:52:44;;;;;;;12.43;7.10;;;;;;;3.11;60.89;99251.90;1758981;79;21198;-70
2021/04/06 00:55:18;;;;;;;11.40;7.70;;;;;;;3.09;60.95;99245.26;1752862;81;21520;-70
2021/04/06 00:57:47;;;;;;;10.32;7.42;;;;;;;3.04;61.09;99244.67;1754194;81;21630;-70
2021/04/06 01:00:25;;;;;;;11.00;6.87;;;;;;;3.02;61.20;99247.53;1754157;80;22525;-73
2021/04/06 01:03:03;;;;;;;10.13;7.10;;;;;;;2.99;61.39;99243.25;1763292;79;21380;-71
2021/04/06 01:05:34;;;;;;;10.75;7.53;;;;;;;2.95;61.44;99250.84;1758594;81;21516;-72
2021/04/06 01:08:04;;;;;;;11.40;7.47;;;;;;;2.92;61.60;99239.45;1758592;81;21255;-71
2021/04/06 01:10:33;;;;;;;10.03;7.33;;;;;;;2.88;61.74;99237.02;1755774;80;21096;-71
2021/04/06 01:13:01;;;;;;;11.90;7.37;;;;;;;2.85;61.95;99240.66;1753677;80;21569;-69
2021/04/06 01:15:29;;;;;;;11.38;8.05;;;;;;;2.83;62.07;99242.23;1709111;80;21241;-71
2021/04/06 01:17:58;;;;;;;12.03;8.10;;;;;;;2.81;62.16;99237.70;1699687;81;21198;-70
2021/04/06 01:20:26;;;;;;;12.18;8.48;;;;;;;2.78;62.23;99234.22;1762487;80;21223;-70
2021/04/06 01:22:56;;;;;;;11.08;7.58;;;;;;;2.75;62.33;99240.76;1755133;79;21638;-70
2021/04/06 01:25:25;;;;;;;13.43;7.85;;;;;;;2.73;62.49;99242.03;1760067;81;21280;-69
2021/04/06 01:28:09;;;;;;;10.45;7.65;;;;;;;2.70;62.57;99239.86;1765610;79;21379;-70
2021/04/06 01:30:46;;;;;;;12.33;7.62;;;;;;;2.67;62.72;99243.00;1758459;79;21221;-69
2021/04/06 01:33:29;;;;;;;11.90;8.25;;;;;;;2.65;62.85;99238.47;1758285;80;21500;-69
2021/04/06 01:35:59;;;;;;;12.60;8.63;;;;;;;2.63;62.99;99242.65;1758078;81;21161;-69
2021/04/06 01:38:28;;;;;;;12.78;7.90;;;;;;;2.59;63.06;99242.84;1758684;81;21082;-70
2021/04/06 01:40:59;;;;;;;11.93;7.70;;;;;;;2.56;63.17;99234.89;1758594;79;22283;-69
2021/04/06 01:43:40;;;;;;;;;;;;;;;;;;;;;
2021/04/06 01:46:20;;;;;;;12.63;8.40;;;;;;;2.57;63.32;99240.46;1803116;78;22277;-73
2021/04/06 01:48:47;;;;;;;11.80;8.00;;;;;;;2.51;63.40;99244.56;1783154;78;21650;-73
2021/04/06 01:51:16;;;;;;;12.55;7.97;;;;;;;2.49;63.52;99251.38;1803884;78;21250;-73
2021/04/06 01:53:44;;;;;;;14.98;8.40;;;;;;;2.46;63.55;99253.16;1785554;79;21072;-74
2021/04/06 01:59:00;;;;;;;11.73;8.60;;;;;;;2.49;63.67;99246.09;1767788;79;22621;-70
2021/04/06 02:01:25;;;;;;;12.30;8.03;;;;;;;2.44;63.78;99243.91;1739595;81;21224;-71
2021/04/06 02:04:03;;;;;;;12.63;8.28;;;;;;;2.45;63.83;99244.18;1744620;79;21388;-72
2021/04/06 02:06:31;;;;;;;12.88;8.50;;;;;;;2.45;63.86;99247.61;1772532;80;21208;-70
2021/04/06 02:08:59;;;;;;;13.60;8.00;;;;;;;2.44;63.95;99244.70;1746829;81;21273;-70
2021/04/06 02:11:31;;;;;;;12.50;8.50;;;;;;;2.42;64.01;99239.37;1768416;80;21085;-71
2021/04/06 02:14:22;;;;;;;13.15;8.25;;;;;;;2.42;64.08;99248.61;1763806;79;21184;-71
2021/04/06 02:17:06;;;;;;;12.80;8.78;;;;;;;2.41;64.15;99239.11;1742212;80;21405;-70
2021/04/06 02:19:40;;;;;;;12.50;8.45;;;;;;;2.38;64.25;99246.96;1741350;81;22262;-69
2021/04/06 02:22:19;;;;;;;12.33;8.10;;;;;;;2.36;64.33;99245.06;1777223;80;21136;-69
2021/04/06 02:24:51;;;;;;;16.00;9.05;;;;;;;2.34;64.44;99240.56;1763912;80;21171;-69
2021/04/06 02:27:23;;;;;;;13.90;9.03;;;;;;;2.30;64.62;99242.88;1754085;81;21115;-69
2021/04/06 02:30:00;;;;;;;13.35;8.53;;;;;;;2.27;64.80;99243.83;1752121;81;21376;-70
2021/04/06 02:32:33;;;;;;;14.58;8.98;;;;;;;2.25;64.96;99251.19;1742225;81;21164;-69
2021/04/06 02:35:07;;;;;;;14.93;8.50;;;;;;;2.23;65.05;99257.99;1760338;79;21167;-69
2021/04/06 02:37:36;;;;;;;16.05;9.38;;;;;;;2.24;65.09;99252.23;1757097;80;21291;-70
2021/04/06 02:40:08;;;;;;;12.90;9.08;;;;;;;2.23;65.14;99247.98;1761544;80;21106;-70
2021/04/06 02:42:44;;;;;;;14.30;9.45;;;;;;;2.24;65.19;99240.38;1752920;81;22285;-71
2021/04/06 02:45:19;;;;;;;13.58;8.75;;;;;;;2.23;65.27;99233.48;1756100;80;21195;-70
2021/04/06 02:47:52;;;;;;;14.23;9.35;;;;;;;2.23;65.35;99227.70;1758205;81;21619;-70
2021/04/06 02:50:25;;;;;;;13.55;9.48;;;;;;;2.23;65.42;99229.53;1758541;81;21187;-70
2021/04/06 02:52:53;;;;;;;14.90;9.08;;;;;;;2.25;65.48;99230.11;1762272;80;21203;-69
2021/04/06 02:55:22;;;;;;;14.78;9.03;;;;;;;2.26;65.58;99235.66;1760277;80;21391;-71
2021/04/06 02:57:53;;;;;;;13.53;8.80;;;;;;;2.25;65.73;99239.33;1758063;81;21214;-70
2021/04/06 03:00:31;;;;;;;13.13;9.10;;;;;;;2.25;65.81;99231.43;1757201;81;21187;-70
2021/04/06 03:03:04;;;;;;;13.40;9.35;;;;;;;2.25;65.87;99232.22;1757983;81;21175;-70
2021/04/06 03:05:37;;;;;;;14.83;9.70;;;;;;;2.29;65.92;99240.45;1759216;80;21203;-70
2021/04/06 03:08:06;;;;;;;12.73;9.15;;;;;;;2.30;66.04;99234.14;1754681;80;21371;-69
2021/04/06 03:10:34;;;;;;;15.60;9.38;;;;;;;2.31;66.15;99231.29;1756625;81;21152;-69
2021/04/06 03:13:11;;;;;;;13.05;9.08;;;;;;;2.35;66.20;99235.57;1758093;81;21195;-71
2021/04/06 03:15:40;;;;;;;12.63;8.30;;;;;;;2.36;66.22;99237.16;1748967;80;21766;-69
2021/04/06 03:18:11;;;;;;;13.88;9.65;;;;;;;2.39;66.15;99236.69;1751114;81;21502;-68
2021/04/06 03:20:41;;;;;;;14.60;9.70;;;;;;;2.40;66.08;99232.22;1762575;79;21379;-68
2021/04/06 03:23:10;;;;;;;16.48;9.58;;;;;;;2.42;66.00;99240.17;1754158;80;21800;-68
2021/04/06 03:25:38;;;;;;;12.98;9.43;;;;;;;2.45;65.95;99236.28;1755312;80;21088;-69
2021/04/06 03:28:09;;;;;;;11.83;9.03;;;;;;;2.46;65.95;99243.93;1755779;81;21153;-69
2021/04/06 03:30:38;;;;;;;13.62;9.60;;;;;;;2.45;65.98;99235.75;1751462;81;21182;-69
2021/04/06 03:33:11;;;;;;;13.15;9.33;;;;;;;2.45;65.99;99244.98;1757239;80;21737;-69
2021/04/06 03:35:41;;;;;;;13.58;9.58;;;;;;;2.48;65.97;99256.89;1766107;79;21552;-69
2021/04/06 03:38:10;;;;;;;15.18;10.35;;;;;;;2.48;65.97;99261.64;1757438;79;21573;-70
2021/04/06 03:40:39;;;;;;;13.30;9.53;;;;;;;2.49;65.98;99267.70;1758619;80;21128;-70
2021/04/06 03:43:17;;;;;;;13.08;8.93;;;;;;;2.53;65.99;99264.88;1755246;81;21152;-72
2021/04/06 03:46:02;;;;;;;15.85;10.43;;;;;;;2.54;66.00;99262.02;1753151;81;22632;-71
2021/04/06 03:48:32;;;;;;;13.88;8.98;;;;;;;2.61;66.01;99261.08;1755743;80;21164;-70
2021/04/06 03:51:02;;;;;;;13.88;9.68;;;;;;;2.65;66.01;99261.67;1751964;80;21171;-68
2021/04/06 03:53:41;;;;;;;12.90;8.88;;;;;;;2.69;65.95;99265.44;1750953;81;21179;-69
2021/04/06 03:56:12;;;;;;;12.93;9.23;;;;;;;2.74;65.86;99260.27;1755765;79;21587;-70
2021/04/06 03:58:46;;;;;;;14.15;9.30;;;;;;;2.80;65.77;99261.95;1758284;81;21424;-69
2021/04/06 04:01:13;;;;;;;13.58;9.38;;;;;;;2.86;65.71;99260.19;1754860;79;21227;-70
2021/04/06 04:03:42;;;;;;;11.75;8.65;;;;;;;2.92;65.67;99260.55;1755244;80;21092;-70
2021/04/06 04:06:10;;;;;;;16.50;10.70;;;;;;;2.98;65.63;99265.41;1778998;79;21196;-70
2021/04/06 04:08:38;;;;;;;14.15;9.75;;;;;;;3.04;65.56;99265.25;1744069;80;21105;-68
2021/04/06 04:11:06;;;;;;;14.73;9.40;;;;;;;3.13;65.52;99266.19;1750654;81;21210;-69
2021/04/06 04:13:34;;;;;;;13.18;9.60;;;;;;;3.21;65.45;99260.50;1748299;80;22220;-70
2021/04/06 04:16:05;;;;;;;14.73;9.63;;;;;;;3.31;65.42;99263.81;1758963;80;21766;-70
2021/04/06 04:18:32;;;;;;;14.60;9.63;;;;;;;3.38;65.24;99257.84;1752146;80;21206;-69
2021/04/06 04:21:04;;;;;;;13.30;9.35;;;;;;;3.46;65.11;99257.45;1765357;79;21084;-70
2021/04/06 04:23:54;;;;;;;11.68;8.93;;;;;;;3.53;64.93;99258.08;1776022;79;21442;-70
2021/04/06 04:26:22;;;;;;;12.98;8.90;;;;;;;3.61;64.74;99252.90;1677455;84;21279;-69
2021/04/06 04:28:50;;;;;;;12.82;9.00;;;;;;;3.68;64.52;99257.48;1728993;81;21239;-69
2021/04/06 04:31:18;;;;;;;12.85;9.50;;;;;;;3.73;64.23;99249.11;1699893;83;21122;-69
2021/04/06 04:33:47;;;;;;;14.33;9.25;;;;;;;3.82;64.08;99253.95;1695616;83;21201;-70
2021/04/06 04:36:14;;;;;;;13.13;8.98;;;;;;;3.89;63.92;99254.61;1694247;82;21486;-69
2021/04/06 04:38:42;;;;;;;12.85;8.73;;;;;;;3.94;63.53;99255.45;1730503;80;21079;-70
2021/04/06 04:41:10;;;;;;;13.50;9.15;;;;;;;4.00;63.34;99245.23;1730896;81;21145;-69
2021/04/06 04:43:38;;;;;;;14.60;9.13;;;;;;;4.07;63.12;99242.39;1723372;81;21255;-69
2021/04/06 04:46:07;;;;;;;12.07;8.60;;;;;;;4.15;63.02;99242.51;1691781;83;21160;-70
2021/04/06 04:48:35;;;;;;;11.85;7.92;;;;;;;4.22;62.81;99241.27;1696069;83;21395;-69
2021/04/06 04:51:04;;;;;;;11.22;8.55;;;;;;;4.28;62.72;99239.98;1691948;83;21139;-69
2021/04/06 04:53:32;;;;;;;12.47;9.18;;;;;;;4.34;62.53;99246.92;1698974;83;21229;-71
2021/04/06 04:56:03;;;;;;;11.57;8.65;;;;;;;4.40;62.37;99245.94;1688117;83;22213;-69
2021/04/06 04:58:31;;;;;;;13.15;8.90;;;;;;;4.47;62.31;99246.53;1700599;83;21078;-68
2021/04/06 05:00:59;;;;;;;11.63;8.53;;;;;;;4.54;62.17;99247.66;1695505;83;21817;-69
2021/04/06 05:03:30;;;;;;;13.55;9.10;;;;;;;4.59;62.01;99248.52;1699033;83;21213;-69
2021/04/06 05:05:58;;;;;;;11.75;8.60;;;;;;;4.64;61.72;99252.55;1693687;83;21193;-70
2021/04/06 05:08:26;;;;;;;13.50;8.40;;;;;;;4.70;61.48;99259.98;1698528;83;21203;-69
2021/04/06 05:10:55;;;;;;;12.43;9.00;;;;;;;4.77;61.26;99262.44;1667936;83;21648;-70
2021/04/06 05:13:25;;;;;;;12.53;9.43;;;;;;;4.82;60.56;99263.81;1705226;83;21386;-70
2021/04/06 05:15:54;;;;;;;13.45;9.58;;;;;;;4.83;60.20;99264.88;1727147;81;21139;-71
2021/04/06 05:18:22;;;;;;;12.18;8.80;;;;;;;4.87;59.94;99260.70;1722369;81;21190;-69
2021/04/06 05:20:51;;;;;;;12.37;9.00;;;;;;;4.92;59.90;99260.73;1717979;81;21519;-68
2021/04/06 05:23:19;;;;;;;11.57;8.35;;;;;;;4.99;59.31;99255.23;1719038;81;21324;-68
2021/04/06 05:25:47;;;;;;;12.40;9.00;;;;;;;5.05;59.16;99248.14;1719162;82;21229;-68
2021/04/06 05:28:16;;;;;;;11.83;8.20;;;;;;;5.12;58.58;99261.95;1720102;81;21184;-69
2021/04/06 05:30:46;;;;;;;11.20;8.25;;;;;;;5.18;58.60;99271.53;1730288;81;21188;-70
2021/04/06 05:33:13;;;;;;;10.45;7.70;;;;;;;5.27;58.34;99259.44;1726182;81;21172;-68
2021/04/06 05:35:41;;;;;;;11.68;8.20;;;;;;;5.37;58.12;99261.36;1723056;81;22489;-69
2021/04/06 05:38:09;;;;;;;12.37;8.48;;;;;;;5.44;57.92;99258.49;1723622;81;22404;-69
2021/04/06 05:40:37;;;;;;;12.55;8.80;;;;;;;5.51;57.75;99253.23;1730553;81;21166;-69
2021/04/06 05:43:05;;;;;;;11.33;8.70;;;;;;;5.57;57.56;99246.92;1728175;81;21128;-68
2021/04/06 05:45:33;;;;;;;12.88;9.25;;;;;;;5.67;57.37;99254.13;1724696;81;21195;-70
2021/04/06 05:48:03;;;;;;;13.00;9.43;;;;;;;5.77;56.86;99258.16;1666947;84;21160;-69
2021/04/06 05:50:32;;;;;;;12.58;8.70;;;;;;;5.86;56.82;99256.63;1697223;83;21384;-69
2021/04/06 05:53:03;;;;;;;12.47;8.30;;;;;;;5.96;56.12;99264.39;1698877;83;21149;-70
2021/04/06 05:55:31;;;;;;;12.75;8.45;;;;;;;6.02;55.94;99259.36;1678706;83;21223;-70
2021/04/06 05:57:59;;;;;;;11.57;8.28;;;;;;;6.10;55.97;99263.64;1726715;81;21199;-70
2021/04/06 06:00:27;;;;;;;13.72;9.40;;;;;;;6.25;55.91;99264.75;1727323;81;21116;-70
2021/04/06 06:02:55;;;;;;;12.18;8.48;;;;;;;6.38;55.41;99262.94;1727684;80;21842;-70
2021/04/06 06:05:24;;;;;;;11.60;8.50;;;;;;;6.51;55.06;99257.14;1734696;81;21102;-70
2021/04/06 06:07:52;;;;;;;12.98;9.33;;;;;;;6.64;54.88;99255.05;1732838;81;21192;-70
2021/04/06 06:10:30;;;;;;;12.05;8.68;;;;;;;6.75;54.11;99258.00;1731638;81;21239;-71
2021/04/06 06:13:24;;;;;;;12.40;9.15;;;;;;;6.82;53.61;99249.25;1731018;81;21805;-70
2021/04/06 06:16:16;;;;;;;11.22;8.53;;;;;;;6.85;53.65;99257.22;1719964;81;21351;-71
2021/04/06 06:19:06;;;;;;;12.55;8.15;;;;;;;6.96;53.80;99255.63;1723769;81;21123;-70
2021/04/06 06:21:40;;;;;;;11.40;7.90;;;;;;;7.14;53.33;99260.13;1729930;81;21172;-71
2021/04/06 06:24:10;;;;;;;10.20;7.87;;;;;;;7.35;53.22;99259.08;1724472;81;21130;-70
2021/04/06 06:26:38;;;;;;;11.73;8.05;;;;;;;7.55;52.44;99255.59;1727024;81;21092;-71
2021/04/06 06:29:10;;;;;;;11.55;8.88;;;;;;;7.69;52.03;99260.60;1745630;80;21813;-72
2021/04/06 06:31:54;;;;;;;13.30;9.00;;;;;;;7.84;51.98;99249.69;1736398;81;21215;-71
2021/04/06 06:34:35;;;;;;;12.63;8.38;;;;;;;8.02;51.86;99253.06;1727085;81;28905;-71
2021/04/06 06:37:20;;;;;;;12.03;8.60;;;;;;;8.24;51.49;99255.38;1722615;81;21668;-72
2021/04/06 06:40:05;;;;;;;11.25;8.90;;;;;;;8.44;51.02;99260.63;1726860;81;21584;-72
2021/04/06 06:42:38;;;;;;;11.22;8.73;;;;;;;8.67;50.16;99256.50;1726326;81;21425;-70
2021/04/06 06:45:22;;;;;;;11.35;8.80;;;;;;;8.86;49.42;99259.85;1671374;84;21185;-69
2021/04/06 06:47:55;;;;;;;12.43;8.60;;;;;;;8.98;49.12;99252.83;1695303;83;21181;-70
2021/04/06 06:50:25;;;;;;;11.10;8.63;;;;;;;9.14;49.23;99256.42;1692412;83;21712;-70
2021/04/06 06:52:54;;;;;;;11.40;8.98;;;;;;;9.33;48.06;99250.41;1706513;83;21151;-72
2021/04/06 06:55:26;;;;;;;10.88;8.98;;;;;;;9.47;48.26;99252.67;1696999;83;21381;-71
2021/04/06 06:58:05;;;;;;;12.50;8.70;;;;;;;9.67;47.86;99256.22;1713330;81;21699;-71
2021/04/06 07:00:33;;;;;;;11.55;8.48;;;;;;;9.89;47.35;99253.84;1698096;83;21292;-71
2021/04/06 07:03:01;;;;;;;11.38;8.55;;;;;;;10.07;46.83;99253.11;1699924;83;21118;-72
2021/04/06 07:05:30;;;;;;;10.78;8.85;;;;;;;10.25;46.68;99248.09;1700995;83;21209;-70
2021/04/06 07:08:04;;;;;;;11.33;8.85;;;;;;;10.43;46.12;99248.69;1719355;81;21436;-71
2021/04/06 07:10:38;;;;;;;13.15;9.23;;;;;;;10.58;45.30;99253.02;1726354;81;21195;-72
2021/04/06 07:13:19;;;;;;;13.95;9.80;;;;;;;10.69;45.49;99250.44;1727132;81;21648;-72
2021/04/06 07:15:51;;;;;;;13.20;9.15;;;;;;;10.83;44.84;99241.18;1727358;81;21433;-73
2021/04/06 07:18:25;;;;;;;12.23;9.03;;;;;;;10.97;44.86;99243.90;1722759;83;21207;-73
2021/04/06 07:21:02;;;;;;;12.50;8.88;;;;;;;11.10;44.37;99240.48;1700815;83;22373;-71
2021/04/06 07:23:39;;;;;;;11.47;8.73;;;;;;;11.26;44.51;99238.35;1670037;84;21178;-73
2021/04/06 07:26:12;;;;;;;11.68;8.85;;;;;;;11.45;43.86;99243.09;1675549;84;23098;-73
2021/04/06 07:28:40;;;;;;;11.33;8.95;;;;;;;11.63;43.90;99241.97;1683896;83;21224;-72
2021/04/06 07:31:10;;;;;;;13.63;9.00;;;;;;;11.78;43.57;99252.92;1709149;81;21226;-74
2021/04/06 07:36:24;;;;;;;12.27;8.93;;;;;;;12.08;43.07;99248.36;1805853;79;23848;-73
2021/04/06 07:38:59;;;;;;;13.13;9.33;;;;;;;12.19;43.34;99249.73;1775115;78;21179;-73
2021/04/06 07:41:32;;;;;;;12.83;9.03;;;;;;;12.39;42.77;99248.50;1781527;78;21440;-74
2021/04/06 07:44:03;;;;;;;10.97;8.77;;;;;;;12.57;42.20;99242.77;1792241;78;21853;-74
2021/04/06 07:46:38;;;;;;;11.30;8.33;;;;;;;12.72;41.61;99247.53;1806733;78;21440;-73
2021/04/06 07:49:21;;;;;;;9.13;7.07;;;;;;;12.80;40.64;99240.91;1782438;79;21408;-74
2021/04/06 07:51:53;;;;;;;11.57;8.13;;;;;;;12.77;39.97;99244.20;1753934;80;21830;-74
2021/04/06 07:54:37;;;;;;;10.37;7.60;;;;;;;12.74;39.93;99244.80;1763398;80;21769;-75
2021/04/06 07:57:06;;;;;;;10.53;7.20;;;;;;;12.83;39.62;99240.83;1764963;80;21485;-74
2021/04/06 07:59:44;;;;;;;9.23;7.40;;;;;;;12.96;38.97;99239.20;1754395;81;21445;-73
2021/04/06 08:02:20;;;;;;;11.13;8.20;;;;;;;13.07;38.88;99245.91;1755532;80;21462;-73
2021/04/06 08:04:57;;;;;;;10.53;8.10;;;;;;;13.14;38.38;99239.02;1755964;80;21404;-73
2021/04/06 08:07:31;;;;;;;11.37;7.77;;;;;;;13.24;38.02;99239.86;1758804;81;21420;-72
2021/04/06 08:10:18;;;;;;;11.73;8.03;;;;;;;13.34;38.56;99239.63;1759040;80;21851;-74
2021/04/06 08:12:48;;;;;;;10.90;8.50;;;;;;;13.47;37.98;99240.66;1758566;80;21470;-75
2021/04/06 08:15:19;;;;;;;10.70;7.73;;;;;;;13.59;37.86;99245.69;1701231;80;21475;-73
2021/04/06 08:17:52;;;;;;;11.00;7.40;;;;;;;13.60;37.05;99247.81;1757719;80;21939;-75
2021/04/06 08:20:35;;;;;;;10.67;7.67;;;;;;;13.57;36.56;99240.38;1740027;81;22165;-74
2021/04/06 08:23:35;;;;;;;10.07;7.43;;;;;;;13.61;36.39;99238.66;1762250;79;23322;-73
2021/04/06 08:26:05;;;;;;;10.43;7.90;;;;;;;13.58;36.76;99227.98;1692051;82;21802;-72
2021/04/06 08:28:37;;;;;;;8.53;6.40;;;;;;;13.71;37.09;99238.94;1720909;82;22282;-72
2021/04/06 08:31:16;;;;;;;9.83;7.27;;;;;;;13.87;36.66;99236.63;1741399;80;22763;-72
2021/04/06 08:33:44;;;;;;;9.57;6.67;;;;;;;13.88;36.00;99240.89;1763721;79;21473;-73
2021/04/06 08:36:25;;;;;;;10.13;7.20;;;;;;;13.88;35.69;99238.20;1735783;82;21496;-73
2021/04/06 08:38:57;;;;;;;8.93;6.28;;;;;;;13.89;35.72;99240.59;1725285;82;21422;-73
2021/04/06 08:41:32;;;;;;;10.05;6.40;;;;;;;13.96;34.86;99230.75;1734195;82;21505;-73
2021/04/06 08:44:06;;;;;;;8.17;6.43;;;;;;;13.91;35.28;99236.25;1723264;82;21158;-73
2021/04/06 08:46:40;;;;;;;11.10;7.40;;;;;;;13.90;34.94;99227.96;1767597;80;21467;-72
2021/04/06 08:49:26;;;;;;;9.57;7.40;;;;;;;13.87;34.74;99233.40;1751868;80;21558;-72
2021/04/06 08:52:02;;;;;;;10.00;7.67;;;;;;;13.89;34.66;99225.83;1779193;79;21452;-72
2021/04/06 08:57:10;;;;;;;11.87;8.40;;;;;;;14.09;34.69;99225.81;1799431;77;22635;-73
2021/04/06 08:59:42;;;;;;;10.70;8.30;;;;;;;14.15;33.40;99225.91;1838633;77;21140;-72
2021/04/06 09:02:13;;;;;;;11.03;8.07;;;;;;;14.15;33.40;99225.91;1804006;78;21466;-72
2021/04/06 09:04:50;;;;;;;10.00;7.75;;;;;;;14.21;33.18;99227.31;1817159;77;21486;-73
2021/04/06 09:07:25;;;;;;;10.67;8.30;;;;;;;14.24;32.98;99229.93;1807500;77;21560;-73
2021/04/06 09:10:02;;;;;;;10.47;7.57;;;;;;;14.30;32.79;99225.44;1814457;77;21402;-72
2021/04/06 09:12:31;;;;;;;9.20;7.00;;;;;;;14.29;32.34;99226.55;1820220;77;21846;-73
2021/04/06 09:14:59;;;;;;;8.33;6.43;;;;;;;14.26;32.76;99231.77;1803586;77;22274;-74
2021/04/06 09:17:33;;;;;;;9.23;6.97;;;;;;;14.36;32.83;99216.69;1808246;77;21477;-74
2021/04/06 09:20:16;;;;;;;9.50;6.07;;;;;;;14.47;31.86;99219.84;1782855;78;21625;-74
2021/04/06 09:22:48;;;;;;;7.20;5.20;;;;;;;14.49;30.96;99218.99;1788320;78;21628;-73
2021/04/06 09:25:23;;;;;;;7.25;5.33;;;;;;;14.49;30.96;99218.99;1786721;78;21477;-74
2021/04/06 09:28:02;;;;;;;8.30;5.63;;;;;;;14.68;31.57;99212.00;1772936;78;21211;-73
2021/04/06 09:30:33;;;;;;;7.97;6.00;;;;;;;14.68;31.57;99212.00;1778752;79;21770;-73
2021/04/06 09:33:06;;;;;;;8.27;5.87;;;;;;;14.73;31.86;99209.92;1776238;78;21663;-72
2021/04/06 09:35:34;;;;;;;7.45;4.72;;;;;;;14.83;31.67;99199.40;1794873;78;21873;-72
2021/04/06 09:38:02;;;;;;;7.23;5.33;;;;;;;14.93;29.77;99217.88;1795313;78;21136;-74
2021/04/06 09:40:40;;;;;;;6.97;5.00;;;;;;;14.91;30.27;99215.30;1784036;78;21835;-73
2021/04/06 09:43:08;;;;;;;8.50;4.93;;;;;;;14.76;29.30;99216.56;1782119;78;21616;-72
2021/04/06 09:45:36;;;;;;;6.83;5.10;;;;;;;14.76;29.30;99216.56;1788344;78;21832;-72
2021/04/06 09:48:06;;;;;;;8.10;5.67;;;;;;;14.69;29.72;99213.01;1776859;78;21902;-73
2021/04/06 09:50:34;;;;;;;7.20;5.70;;;;;;;14.63;29.76;99210.80;1789841;78;21870;-74
2021/04/06 09:53:04;;;;;;;8.50;5.50;;;;;;;14.65;29.99;99210.73;1801975;78;21659;-73
2021/04/06 09:55:31;;;;;;;7.67;5.07;;;;;;;14.87;30.08;99195.52;1700438;80;21825;-73
2021/04/06 09:58:02;;;;;;;6.90;5.13;;;;;;;15.03;29.81;99200.63;1720129;81;22321;-73
2021/04/06 10:00:32;;;;;;;7.40;4.77;;;;;;;15.03;29.81;99200.63;1740296;81;21877;-74
2021/04/06 10:03:07;;;;;;;7.67;5.00;;;;;;;15.23;29.80;99195.13;1737752;81;21877;-73
2021/04/06 10:05:38;;;;;;;7.07;4.97;;;;;;;15.41;29.41;99191.84;1751719;79;22105;-73
2021/04/06 10:08:07;;;;;;;6.63;4.80;;;;;;;15.61;29.61;99194.38;1740259;81;22324;-74
2021/04/06 10:10:36;;;;;;;6.67;4.60;;;;;;;15.79;28.80;99181.64;1749328;79;21960;-73
2021/04/06 10:13:05;;;;;;;8.00;4.87;;;;;;;15.92;28.82;99191.38;1756258;79;21905;-74
2021/04/06 10:15:34;;;;;;;5.97;4.50;;;;;;;16.01;28.86;99188.09;1751166;79;21801;-74
2021/04/06 10:18:15;;;;;;;6.73;4.37;;;;;;;16.09;28.34;99189.95;1744847;79;21900;-72
2021/04/06 10:20:48;;;;;;;5.87;3.98;;;;;;;16.12;28.11;99189.84;1758344;79;21857;-74
2021/04/06 10:23:31;;;;;;;7.17;4.10;;;;;;;16.15;28.31;99181.10;1760520;80;21088;-73
2021/04/06 10:26:00;;;;;;;7.37;4.50;;;;;;;16.17;28.19;99182.92;1769841;78;21625;-72
2021/04/06 10:28:31;;;;;;;6.30;4.63;;;;;;;16.29;28.38;99178.17;1763063;80;21158;-73
2021/04/06 10:31:04;;;;;;;8.38;4.90;;;;;;;16.32;27.94;99170.76;1770785;80;21252;-73
2021/04/06 10:33:38;;;;;;;7.43;4.67;;;;;;;16.25;27.88;99175.89;1782530;78;21226;-73
2021/04/06 10:36:18;;;;;;;7.17;5.17;;;;;;;16.09;27.95;99173.80;1773866;78;21786;-73
2021/04/06 10:38:47;;;;;;;7.80;5.50;;;;;;;15.99;28.87;99178.75;1764811;80;21139;-73
2021/04/06 10:41:17;;;;;;;7.33;5.70;;;;;;;15.93;29.42;99174.13;1767339;80;21892;-73
2021/04/06 10:43:51;;;;;;;8.37;5.73;;;;;;;15.95;29.00;99171.88;1775509;80;21831;-73
2021/04/06 10:49:05;;;;;;;6.63;5.30;;;;;;;15.89;28.94;99169.96;1835103;77;22703;-73
2021/04/06 10:51:34;;;;;;;9.08;5.78;;;;;;;15.88;29.31;99177.00;1804725;78;21116;-73
2021/04/06 10:54:12;;;;;;;7.20;5.77;;;;;;;15.89;30.10;99169.14;1807414;78;21419;-72
2021/04/06 10:56:56;;;;;;;9.30;7.63;;;;;;;15.85;29.26;99166.88;1838881;76;21864;-74
2021/04/06 10:59:36;;;;;;;9.90;6.50;;;;;;;15.63;29.15;99161.99;1806246;78;21877;-73
2021/04/06 11:02:04;;;;;;;8.73;6.40;;;;;;;15.42;30.81;99167.30;1815799;78;22336;-73
2021/04/06 11:04:39;;;;;;;7.23;5.37;;;;;;;15.47;30.87;99169.03;1815297;78;21790;-73
2021/04/06 11:07:35;;;;;;;7.70;5.17;;;;;;;15.68;30.87;99163.17;1794820;77;23478;-72
2021/04/06 11:10:07;;;;;;;7.03;5.23;;;;;;;15.73;30.61;99154.14;1757523;81;21121;-72
2021/04/06 11:12:36;;;;;;;9.47;5.90;;;;;;;15.90;30.51;99158.62;1764908;80;21879;-75
2021/04/06 11:15:08;;;;;;;7.53;5.37;;;;;;;16.08;30.58;99154.69;1728279;81;21892;-73
2021/04/06 11:17:36;;;;;;;6.67;5.10;;;;;;;16.31;29.79;99153.80;1756251;81;21889;-72
2021/04/06 11:20:06;;;;;;;7.00;4.90;;;;;;;16.52;29.63;99126.86;1760947;81;21607;-73
2021/04/06 11:22:34;;;;;;;8.00;5.53;;;;;;;16.72;29.39;99156.81;1758265;80;21125;-73
2021/04/06 11:25:01;;;;;;;7.37;5.33;;;;;;;16.84;27.86;99152.25;1746662;81;21339;-73
2021/04/06 11:27:29;;;;;;;8.90;5.10;;;;;;;16.86;28.12;99139.80;1752695;80;21226;-72
2021/04/06 11:29:59;;;;;;;6.23;4.97;;;;;;;16.90;27.96;99141.27;1752793;80;21187;-74
2021/04/06 11:32:27;;;;;;;6.70;4.80;;;;;;;16.91;27.97;99133.39;1762275;81;21159;-74
2021/04/06 11:34:57;;;;;;;7.03;5.10;;;;;;;16.93;27.52;99130.59;1732475;81;21180;-72
2021/04/06 11:37:26;;;;;;;7.78;5.05;;;;;;;16.97;27.90;99133.41;1722883;81;22909;-71
2021/04/06 11:39:54;;;;;;;5.97;4.30;;;;;;;17.03;28.11;99128.81;1758503;81;21196;-71
2021/04/06 11:42:22;;;;;;;6.20;4.67;;;;;;;17.06;28.16;99124.66;1733265;81;21124;-71
2021/04/06 11:44:50;;;;;;;6.07;4.37;;;;;;;16.96;28.10;99124.53;1746605;81;21180;-74
2021/04/06 11:47:18;;;;;;;7.30;4.97;;;;;;;16.97;28.20;99130.71;1756037;81;21646;-70
2021/04/06 11:49:47;;;;;;;6.50;4.40;;;;;;;17.03;28.21;99123.98;1758925;79;21286;-72
2021/04/06 11:52:15;;;;;;;5.97;4.43;;;;;;;17.05;26.53;99123.88;1763004;80;21142;-72
2021/04/06 11:54:43;;;;;;;5.00;4.20;;;;;;;16.94;27.28;99124.07;1759843;81;21635;-73
2021/04/06 11:57:11;;;;;;;6.70;4.50;;;;;;;16.98;28.25;99122.30;1752153;79;21202;-75
2021/04/06 11:59:39;;;;;;;7.20;4.57;;;;;;;17.04;27.45;99126.90;1760484;80;21164;-73
2021/04/06 12:02:08;;;;;;;5.87;4.20;;;;;;;17.06;27.61;99124.66;1753840;81;21253;-73
2021/04/06 12:04:36;;;;;;;5.07;4.03;;;;;;;17.05;27.21;99126.58;1759555;80;21146;-73
2021/04/06 12:07:04;;;;;;;6.37;4.77;;;;;;;17.00;26.69;99118.69;1755656;79;21735;-74
2021/04/06 12:09:35;;;;;;;6.13;4.23;;;;;;;16.91;27.30;99115.30;1754046;80;21497;-73